createdAt,value
2019-03-18T00:01:25.493Z,96664.72
2019-03-18T00:03:52.140Z,96656.23
2019-03-18T00:11:54.713Z,96656.70
2019-03-18T00:14:28.611Z,96658.38
2019-03-18T00:16:59.517Z,96645.24
2019-03-18T00:19:26.803Z,96634.63
2019-03-18T00:21:54.518Z,96637.44
2019-03-18T00:24:22.135Z,96641.59
2019-03-18T00:26:51.814Z,96646.08
2019-03-18T00:29:22.947Z,96647.80
2019-03-18T00:31:52.187Z,96647.80
2019-03-18T00:34:31.423Z,96659.77
2019-03-18T00:37:02.107Z,96683.13
2019-03-18T00:39:46.983Z,96681.44
2019-03-18T00:42:21.542Z,96678.97
2019-03-18T00:44:45.421Z,96701.63
2019-03-18T00:47:12.318Z,96714.70
2019-03-18T00:49:40.908Z,96721.20
2019-03-18T00:52:07.806Z,96742.77
2019-03-18T00:54:34.431Z,96736.73
2019-03-18T00:57:01.116Z,96742.09
2019-03-18T00:59:27.727Z,96754.46
2019-03-18T01:01:54.926Z,96751.37
2019-03-18T01:04:21.826Z,96753.13
2019-03-18T01:06:49.100Z,96765.75
2019-03-18T01:09:15.963Z,96772.72
2019-03-18T01:11:42.683Z,96765.56
2019-03-18T01:14:09.579Z,96757.38
2019-03-18T01:16:36.329Z,96749.27
2019-03-18T01:19:02.955Z,96754.30
2019-03-18T01:21:29.877Z,96767.05
2019-03-18T01:23:56.637Z,96761.77
2019-03-18T01:26:23.335Z,96748.30
2019-03-18T01:28:50.223Z,96768.83
2019-03-18T01:31:17.399Z,96764.20
2019-03-18T01:33:44.624Z,96767.15
2019-03-18T01:36:11.583Z,96760.33
2019-03-18T01:38:38.496Z,96775.05
2019-03-18T01:41:05.213Z,96768.97
2019-03-18T01:43:32.581Z,96751.45
2019-03-18T01:45:59.277Z,96767.57
2019-03-18T01:48:26.186Z,96757.61
2019-03-18T01:50:53.104Z,96769.41
2019-03-18T01:53:20.036Z,96752.15
2019-03-18T01:55:47.049Z,96773.99
2019-03-18T01:58:13.660Z,96795.22
2019-03-18T02:00:40.282Z,96800.95
2019-03-18T02:03:07.456Z,96811.55
2019-03-18T02:05:34.039Z,96823.83
2019-03-18T02:10:49.641Z,96829.06
2019-03-18T02:13:18.596Z,96845.74
2019-03-18T02:15:53.644Z,96843.16
2019-03-18T02:21:05.957Z,96851.82
2019-03-18T02:23:33.780Z,96856.98
2019-03-18T02:26:07.574Z,96852.31
2019-03-18T02:28:37.701Z,96861.02
2019-03-18T02:31:05.360Z,96870.30
2019-03-18T02:33:34.826Z,96872.73
2019-03-18T02:36:07.645Z,96883.12
2019-03-18T02:38:35.600Z,96883.21
2019-03-18T02:43:57.953Z,96895.33
2019-03-18T02:46:22.658Z,96886.68
2019-03-18T02:48:50.085Z,96881.34
2019-03-18T02:51:17.440Z,96887.38
2019-03-18T02:53:45.542Z,96903.09
2019-03-18T02:56:13.973Z,96909.30
2019-03-18T02:58:47.002Z,96936.27
2019-03-18T03:01:16.702Z,96939.03
2019-03-18T03:03:44.578Z,96947.97
2019-03-18T03:06:11.228Z,96933.55
2019-03-18T03:08:53.779Z,96931.13
2019-03-18T03:11:24.558Z,96929.66
2019-03-18T03:13:52.587Z,96931.06
2019-03-18T03:16:26.886Z,96931.47
2019-03-18T03:18:57.084Z,96913.18
2019-03-18T03:21:30.031Z,96912.79
2019-03-18T03:23:59.112Z,96899.39
2019-03-18T03:26:29.908Z,96904.47
2019-03-18T03:29:14.636Z,96920.56
2019-03-18T03:31:42.501Z,96943.34
2019-03-18T03:34:14.396Z,96961.23
2019-03-18T03:36:48.259Z,96970.22
2019-03-18T03:39:23.047Z,96961.20
2019-03-18T03:41:51.160Z,96963.66
2019-03-18T03:44:21.816Z,96961.09
2019-03-18T03:49:40.850Z,96976.59
2019-03-18T03:52:19.763Z,96986.22
2019-03-18T03:54:48.869Z,97012.25
2019-03-18T03:57:18.624Z,97010.59
2019-03-18T03:59:47.802Z,97046.73
2019-03-18T04:02:14.842Z,97065.29
2019-03-18T04:04:41.832Z,97082.30
2019-03-18T04:07:12.091Z,97082.45
2019-03-18T04:09:42.686Z,97090.18
2019-03-18T04:12:20.496Z,97100.95
2019-03-18T04:14:48.353Z,97103.51
2019-03-18T04:17:16.123Z,97092.59
2019-03-18T04:19:49.107Z,97089.33
2019-03-18T04:24:50.447Z,97107.61
2019-03-18T04:27:19.313Z,97111.28
2019-03-18T04:29:50.010Z,97123.19
2019-03-18T04:32:23.907Z,97119.53
2019-03-18T04:34:53.293Z,97130.28
2019-03-18T04:40:07.724Z,97149.05
2019-03-18T04:42:38.652Z,97162.11
2019-03-18T04:45:11.942Z,97170.80
2019-03-18T04:47:42.467Z,97165.57
2019-03-18T04:50:09.292Z,97177.12
2019-03-18T04:52:38.556Z,97185.06
2019-03-18T04:55:11.472Z,97176.77
2019-03-18T04:57:40.663Z,97172.77
2019-03-18T05:00:11.813Z,97190.75
2019-03-18T05:02:39.472Z,97191.05
2019-03-18T05:05:07.464Z,97185.08
2019-03-18T05:07:35.589Z,97195.87
2019-03-18T05:10:04.123Z,97177.47
2019-03-18T05:12:38.956Z,97179.52
2019-03-18T05:15:05.512Z,97188.49
2019-03-18T05:17:37.190Z,97205.64
2019-03-18T05:20:08.693Z,97212.08
2019-03-18T05:22:37.415Z,97206.16
2019-03-18T05:25:07.162Z,97193.38
2019-03-18T05:27:34.582Z,97194.27
2019-03-18T05:32:49.245Z,97191.70
2019-03-18T05:38:08.050Z,97201.45
2019-03-18T05:40:36.913Z,97207.38
2019-03-18T05:43:06.154Z,97206.09
2019-03-18T05:45:34.411Z,97219.45
2019-03-18T05:48:04.175Z,97223.08
2019-03-18T05:50:36.808Z,97219.44
2019-03-18T05:55:55.005Z,97226.80
2019-03-18T05:58:26.658Z,97229.23
2019-03-18T06:00:58.004Z,97234.52
2019-03-18T06:03:24.986Z,97243.64
2019-03-18T06:05:51.544Z,97246.56
2019-03-18T06:11:18.198Z,97270.02
2019-03-18T06:13:49.435Z,97277.39
2019-03-18T06:19:06.510Z,97283.88
2019-03-18T06:21:35.462Z,97287.82
2019-03-18T06:24:09.926Z,97289.18
2019-03-18T06:26:38.799Z,97288.50
2019-03-18T06:29:14.960Z,97289.86
2019-03-18T06:31:44.161Z,97303.22
2019-03-18T06:34:28.638Z,97307.20
2019-03-18T06:36:56.925Z,97306.88
2019-03-18T06:39:28.101Z,97307.38
2019-03-18T06:41:58.712Z,97302.67
2019-03-18T06:44:31.927Z,97300.04
2019-03-18T06:47:03.648Z,97298.38
2019-03-18T06:52:21.664Z,97305.05
2019-03-18T06:55:00.043Z,97306.14
2019-03-18T06:57:29.859Z,97310.18
2019-03-18T06:59:59.047Z,97297.95
2019-03-18T07:02:33.092Z,97305.45
2019-03-18T07:05:02.249Z,97311.53
2019-03-18T07:07:31.638Z,97318.45
2019-03-18T07:09:59.246Z,97329.78
2019-03-18T07:12:28.164Z,97339.88
2019-03-18T07:14:55.819Z,97340.05
2019-03-18T07:17:26.959Z,97339.08
2019-03-18T07:19:58.618Z,97340.51
2019-03-18T07:22:25.263Z,97352.41
2019-03-18T07:24:54.262Z,97362.80
2019-03-18T07:27:39.758Z,97377.98
2019-03-18T07:29:54.187Z,97378.51
2019-03-18T07:32:21.646Z,97382.39
2019-03-18T07:34:49.184Z,97383.31
2019-03-18T07:37:16.195Z,97387.32
2019-03-18T07:39:46.828Z,97391.66
2019-03-18T07:42:21.339Z,97376.90
2019-03-18T07:44:49.018Z,97364.37
2019-03-18T07:47:20.606Z,97371.00
2019-03-18T07:49:48.406Z,97368.98
2019-03-18T07:52:21.873Z,97368.55
2019-03-18T07:54:49.225Z,97367.25
2019-03-18T07:57:17.861Z,97363.36
2019-03-18T07:59:47.105Z,97369.50
2019-03-18T08:02:17.010Z,97387.16
2019-03-18T08:04:49.034Z,97396.78
2019-03-18T08:07:20.519Z,97395.16
2019-03-18T08:09:48.558Z,97381.70
2019-03-18T08:12:15.300Z,97383.28
2019-03-18T08:14:43.343Z,97400.80
2019-03-18T08:17:13.060Z,97407.46
2019-03-18T08:19:42.009Z,97420.02
2019-03-18T08:22:11.346Z,97438.06
2019-03-18T08:24:38.714Z,97441.46
2019-03-18T08:27:11.304Z,97446.16
2019-03-18T08:29:42.526Z,97445.89
2019-03-18T08:32:12.729Z,97449.33
2019-03-18T08:34:43.400Z,97450.42
2019-03-18T08:37:10.351Z,97440.33
2019-03-18T08:42:24.218Z,97423.67
2019-03-18T08:44:53.320Z,97434.37
2019-03-18T08:49:56.986Z,97441.08
2019-03-18T08:52:25.497Z,97440.97
2019-03-18T08:54:54.176Z,97435.59
2019-03-18T08:57:24.354Z,97440.47
2019-03-18T08:59:55.659Z,97441.91
2019-03-18T09:02:22.380Z,97452.05
2019-03-18T09:04:53.293Z,97446.31
2019-03-18T09:07:22.886Z,97460.83
2019-03-18T09:09:51.064Z,97464.22
2019-03-18T09:12:18.393Z,97460.86
2019-03-18T09:14:45.341Z,97455.14
2019-03-18T09:19:58.970Z,97461.25
2019-03-18T09:22:26.658Z,97483.50
2019-03-18T09:24:53.633Z,97491.88
2019-03-18T09:27:21.323Z,97488.28
2019-03-18T09:29:50.703Z,97485.81
2019-03-18T09:32:20.388Z,97481.08
2019-03-18T09:34:48.282Z,97489.12
2019-03-18T09:37:15.975Z,97489.12
2019-03-18T09:39:51.161Z,97492.52
2019-03-18T09:42:19.406Z,97491.42
2019-03-18T09:44:52.698Z,97492.48
2019-03-18T09:47:19.674Z,97487.58
2019-03-18T09:49:50.415Z,97485.59
2019-03-18T09:52:21.418Z,97494.46
2019-03-18T09:54:49.581Z,97509.95
2019-03-18T09:57:25.807Z,97520.23
2019-03-18T10:02:36.009Z,97515.92
2019-03-18T10:05:02.636Z,97516.10
2019-03-18T10:07:31.062Z,97529.83
2019-03-18T10:09:58.002Z,97544.42
2019-03-18T10:12:24.888Z,97543.77
2019-03-18T10:14:52.166Z,97538.56
2019-03-18T10:17:20.078Z,97533.11
2019-03-18T10:19:46.732Z,97542.26
2019-03-18T10:22:13.548Z,97543.05
2019-03-18T10:24:41.220Z,97540.05
2019-03-18T10:27:08.137Z,97532.61
2019-03-18T10:29:35.389Z,97523.34
2019-03-18T10:32:02.772Z,97522.07
2019-03-18T10:34:30.129Z,97532.72
2019-03-18T10:36:57.257Z,97527.50
2019-03-18T10:39:24.562Z,97516.30
2019-03-18T10:41:51.271Z,97519.00
2019-03-18T10:44:18.590Z,97521.58
2019-03-18T10:46:45.285Z,97522.85
2019-03-18T10:49:12.881Z,97514.41
2019-03-18T10:51:39.588Z,97522.02
2019-03-18T10:54:06.551Z,97528.28
2019-03-18T10:56:33.650Z,97530.39
2019-03-18T10:59:00.716Z,97542.17
2019-03-18T11:01:27.463Z,97549.34
2019-03-18T11:03:55.934Z,97542.24
2019-03-18T11:06:23.257Z,97550.75
2019-03-18T11:08:50.377Z,97550.08
2019-03-18T11:11:17.268Z,97551.42
2019-03-18T11:13:44.234Z,97558.90
2019-03-18T11:16:11.151Z,97546.08
2019-03-18T11:18:38.823Z,97540.89
2019-03-18T11:21:05.597Z,97541.53
2019-03-18T11:23:32.286Z,97558.65
2019-03-18T11:25:59.046Z,97560.91
2019-03-18T11:28:25.892Z,97551.19
2019-03-18T11:30:53.397Z,97553.78
2019-03-18T11:33:21.362Z,97555.23
2019-03-18T11:35:48.230Z,97553.05
2019-03-18T11:38:14.909Z,97558.26
2019-03-18T11:40:41.892Z,97563.77
2019-03-18T11:43:08.836Z,97561.28
2019-03-18T11:45:35.824Z,97551.52
2019-03-18T11:48:03.745Z,97545.09
2019-03-18T11:50:30.748Z,97545.03
2019-03-18T11:52:57.954Z,97543.95
2019-03-18T11:55:24.712Z,97544.20
2019-03-18T11:57:51.852Z,97546.74
2019-03-18T12:00:19.837Z,97538.95
2019-03-18T12:02:46.850Z,97540.78
2019-03-18T12:05:13.801Z,97538.30
2019-03-18T12:10:26.146Z,97537.30
2019-03-18T12:12:54.619Z,97527.87
2019-03-18T12:18:08.618Z,97522.05
2019-03-18T12:20:35.776Z,97524.72
2019-03-18T12:23:03.414Z,97526.81
2019-03-18T12:25:33.542Z,97514.64
2019-03-18T12:27:59.271Z,97527.92
2019-03-18T12:30:27.010Z,97539.45
2019-03-18T12:32:54.090Z,97532.63
2019-03-18T12:35:20.773Z,97523.64
2019-03-18T12:37:47.707Z,97523.22
2019-03-18T12:40:15.065Z,97526.42
2019-03-18T12:42:43.420Z,97531.25
2019-03-18T12:45:11.242Z,97525.08
2019-03-18T12:47:38.070Z,97534.37
2019-03-18T12:50:06.148Z,97532.39
2019-03-18T12:52:36.128Z,97531.39
2019-03-18T12:55:03.202Z,97529.48
2019-03-18T12:57:30.191Z,97528.02
2019-03-18T12:59:58.332Z,97544.58
2019-03-18T13:02:26.611Z,97535.58
2019-03-18T13:04:57.986Z,97533.55
2019-03-18T13:10:14.127Z,97532.06
2019-03-18T13:12:45.118Z,97528.62
2019-03-18T13:17:58.106Z,97503.70
2019-03-18T13:20:26.068Z,97505.25
2019-03-18T13:22:59.316Z,97517.25
2019-03-18T13:25:28.552Z,97512.00
2019-03-18T13:27:57.017Z,97500.62
2019-03-18T13:33:14.062Z,97503.40
2019-03-18T13:38:30.764Z,97514.80
2019-03-18T13:43:47.535Z,97512.08
2019-03-18T13:46:15.188Z,97517.64
2019-03-18T13:48:44.827Z,97527.45
2019-03-18T13:51:20.932Z,97522.21
2019-03-18T13:53:46.298Z,97523.40
2019-03-18T13:56:13.286Z,97524.06
2019-03-18T13:58:45.331Z,97522.31
2019-03-18T14:01:19.986Z,97515.69
2019-03-18T14:03:47.336Z,97512.12
2019-03-18T14:09:01.984Z,97507.72
2019-03-18T14:11:30.191Z,97511.22
2019-03-18T14:13:58.179Z,97511.95
2019-03-18T14:16:25.249Z,97519.00
2019-03-18T14:18:54.108Z,97517.06
2019-03-18T14:21:32.814Z,97507.25
2019-03-18T14:23:51.775Z,97514.41
2019-03-18T14:26:19.658Z,97516.97
2019-03-18T14:31:36.429Z,97515.42
2019-03-18T14:34:08.533Z,97507.16
2019-03-18T14:36:39.928Z,97507.90
2019-03-18T14:39:08.933Z,97505.07
2019-03-18T14:41:40.188Z,97509.14
2019-03-18T14:44:08.177Z,97513.08
2019-03-18T14:46:41.436Z,97516.70
2019-03-18T14:49:10.927Z,97510.83
2019-03-18T14:51:46.048Z,97502.41
2019-03-18T14:54:11.787Z,97506.58
2019-03-18T14:56:42.005Z,97515.34
2019-03-18T14:59:11.679Z,97525.94
2019-03-18T15:01:40.594Z,97525.38
2019-03-18T15:04:10.036Z,97528.96
2019-03-18T15:06:41.069Z,97526.00
2019-03-18T15:09:10.920Z,97524.95
2019-03-18T15:11:37.482Z,97525.86
2019-03-18T15:14:05.599Z,97527.95
2019-03-18T15:16:33.209Z,97521.69
2019-03-18T15:19:02.054Z,97519.13
2019-03-18T15:21:29.926Z,97519.88
2019-03-18T15:24:00.366Z,97527.89
2019-03-18T15:26:27.228Z,97531.22
2019-03-18T15:29:00.402Z,97539.39
2019-03-18T15:31:31.212Z,97551.29
2019-03-18T15:34:02.431Z,97548.09
2019-03-18T15:36:33.260Z,97540.20
2019-03-18T15:39:08.923Z,97539.36
2019-03-18T15:41:34.749Z,97543.50
2019-03-18T15:46:51.099Z,97552.59
2019-03-18T15:49:19.086Z,97545.63
2019-03-18T15:51:47.184Z,97539.10
2019-03-18T15:54:16.550Z,97547.52
2019-03-18T15:56:45.988Z,97548.87
2019-03-18T15:59:17.887Z,97557.77
2019-03-18T16:01:46.053Z,97562.39
2019-03-18T16:12:37.942Z,97558.04
2019-03-18T16:15:08.587Z,97570.95
2019-03-18T16:17:37.522Z,97577.70
2019-03-18T16:20:05.426Z,97587.34
2019-03-18T16:22:33.838Z,97592.98
2019-03-18T16:25:04.007Z,97599.84
2019-03-18T16:27:31.479Z,97601.03
2019-03-18T16:30:03.854Z,97602.20
2019-03-18T16:32:30.137Z,97603.41
2019-03-18T16:34:59.663Z,97608.72
2019-03-18T16:37:28.603Z,97613.70
2019-03-18T16:40:08.372Z,97613.16
2019-03-18T16:42:39.561Z,97628.34
2019-03-18T16:47:59.642Z,97628.58
2019-03-18T16:50:27.917Z,97633.22
2019-03-18T16:53:10.219Z,97637.26
2019-03-18T16:55:27.358Z,97633.88
2019-03-18T16:57:56.407Z,97648.36
2019-03-18T17:00:25.609Z,97643.39
2019-03-18T17:02:52.574Z,97630.89
2019-03-18T17:05:19.301Z,97632.09
2019-03-18T17:07:47.134Z,97634.21
2019-03-18T17:10:15.248Z,97633.82
2019-03-18T17:12:41.891Z,97641.23
2019-03-18T17:15:08.828Z,97646.83
2019-03-18T17:17:35.811Z,97649.67
2019-03-18T17:20:02.793Z,97655.11
2019-03-18T17:22:29.638Z,97663.25
2019-03-18T17:24:56.461Z,97668.58
2019-03-18T17:27:23.501Z,97666.94
2019-03-18T17:29:50.124Z,97675.05
2019-03-18T17:32:16.764Z,97681.40
2019-03-18T17:34:43.447Z,97683.52
2019-03-18T17:37:10.409Z,97686.91
2019-03-18T17:39:37.087Z,97689.73
2019-03-18T17:42:03.710Z,97701.22
2019-03-18T17:44:30.364Z,97695.98
2019-03-18T17:46:58.708Z,97698.17
2019-03-18T17:49:26.561Z,97698.14
2019-03-18T17:51:53.372Z,97705.44
2019-03-18T17:54:20.091Z,97700.53
2019-03-18T17:56:46.734Z,97706.20
2019-03-18T17:59:13.387Z,97711.66
2019-03-18T18:01:40.141Z,97705.73
2019-03-18T18:04:06.861Z,97702.80
2019-03-18T18:09:18.968Z,97710.58
2019-03-18T18:11:46.605Z,97716.05
2019-03-18T18:14:13.207Z,97727.98
2019-03-18T18:16:40.083Z,97723.02
2019-03-18T18:19:08.250Z,97726.22
2019-03-18T18:21:34.851Z,97731.90
2019-03-18T18:24:01.817Z,97734.20
2019-03-18T18:26:28.960Z,97740.27
2019-03-18T18:28:58.328Z,97741.81
2019-03-18T18:31:25.967Z,97746.77
2019-03-18T18:33:52.936Z,97736.69
2019-03-18T18:36:19.663Z,97743.04
2019-03-18T18:38:46.296Z,97749.25
2019-03-18T18:41:13.975Z,97752.89
2019-03-18T18:43:41.993Z,97756.33
2019-03-18T18:46:08.649Z,97759.34
2019-03-18T18:48:35.443Z,97763.70
2019-03-18T18:51:02.668Z,97768.37
2019-03-18T18:53:30.281Z,97771.67
2019-03-18T18:56:14.553Z,97774.89
2019-03-18T18:58:41.562Z,97775.13
2019-03-18T19:01:19.925Z,97782.42
2019-03-18T19:03:47.544Z,97784.33
2019-03-18T19:06:14.467Z,97786.82
2019-03-18T19:08:42.101Z,97786.82
2019-03-18T19:11:09.051Z,97791.39
2019-03-18T19:13:37.295Z,97798.87
2019-03-18T19:16:04.235Z,97790.22
2019-03-18T19:18:37.754Z,97793.03
2019-03-18T19:21:01.986Z,97804.94
2019-03-18T19:23:37.595Z,97808.52
2019-03-18T19:25:58.694Z,97799.06
2019-03-18T19:28:26.335Z,97801.02
2019-03-18T19:30:53.061Z,97807.52
2019-03-18T19:33:21.292Z,97810.72
2019-03-18T19:35:47.890Z,97802.77
2019-03-18T19:38:15.870Z,97806.86
2019-03-18T19:40:43.804Z,97816.87
2019-03-18T19:43:11.422Z,97819.81
2019-03-18T19:45:39.077Z,97810.45
2019-03-18T19:48:06.234Z,97813.39
2019-03-18T19:50:33.113Z,97815.30
2019-03-18T19:53:00.709Z,97826.69
2019-03-18T19:55:28.324Z,97833.99
2019-03-18T19:57:55.166Z,97837.85
2019-03-18T20:00:22.806Z,97854.05
2019-03-18T20:02:49.594Z,97851.27
2019-03-18T20:05:18.904Z,97859.41
2019-03-18T20:10:30.955Z,97866.98
2019-03-18T20:12:57.721Z,97862.70
2019-03-18T20:15:26.160Z,97873.52
2019-03-18T20:17:52.908Z,97871.90
2019-03-18T20:20:21.965Z,97869.65
2019-03-18T20:22:48.671Z,97876.53
2019-03-18T20:25:15.361Z,97877.41
2019-03-18T20:27:42.631Z,97881.69
2019-03-18T20:30:09.339Z,97892.61
2019-03-18T20:32:36.472Z,97896.63
2019-03-18T20:35:03.108Z,97890.09
2019-03-18T20:37:31.797Z,97891.25
2019-03-18T20:39:58.453Z,97899.31
2019-03-18T20:42:25.366Z,97898.67
2019-03-18T20:44:53.746Z,97906.70
2019-03-18T20:47:20.589Z,97915.84
2019-03-18T20:49:47.201Z,97916.34
2019-03-18T20:52:17.051Z,97921.16
2019-03-18T20:54:42.716Z,97927.08
2019-03-18T20:57:09.586Z,97922.97
2019-03-18T20:59:36.244Z,97925.27
2019-03-18T21:02:03.479Z,97929.89
2019-03-18T21:04:31.194Z,97921.81
2019-03-18T21:06:59.626Z,97916.69
2019-03-18T21:09:26.473Z,97914.39
2019-03-18T21:11:54.018Z,97916.70
2019-03-18T21:14:20.693Z,97912.81
2019-03-18T21:16:47.701Z,97921.50
2019-03-18T21:19:14.441Z,97918.74
2019-03-18T21:21:41.614Z,97914.15
2019-03-18T21:24:08.627Z,97923.01
2019-03-18T21:26:35.287Z,97924.63
2019-03-18T21:29:01.984Z,97925.46
2019-03-18T21:31:28.759Z,97924.48
2019-03-18T21:33:56.366Z,97929.23
2019-03-18T21:36:36.953Z,97938.11
2019-03-18T21:38:53.218Z,97932.50
2019-03-18T21:41:20.819Z,97931.52
2019-03-18T21:43:48.482Z,97934.96
2019-03-18T21:46:15.466Z,97933.00
2019-03-18T21:48:42.334Z,97937.41
2019-03-18T21:51:10.040Z,97944.81
2019-03-18T21:53:37.920Z,97944.31
2019-03-18T21:56:05.717Z,97942.36
2019-03-18T21:58:33.382Z,97943.37
2019-03-18T22:01:00.591Z,97947.30
2019-03-18T22:03:27.282Z,97945.52
2019-03-18T22:05:53.928Z,97948.30
2019-03-18T22:08:25.082Z,97942.37
2019-03-18T22:10:53.709Z,97941.23
2019-03-18T22:13:22.595Z,97945.16
2019-03-18T22:15:50.967Z,97943.05
2019-03-18T22:18:19.147Z,97938.13
2019-03-18T22:20:52.001Z,97939.12
2019-03-18T22:23:22.895Z,97941.06
2019-03-18T22:25:50.762Z,97942.37
2019-03-18T22:28:19.761Z,97940.42
2019-03-18T22:30:46.884Z,97938.44
2019-03-18T22:33:20.256Z,97937.56
2019-03-18T22:35:50.770Z,97937.39
2019-03-18T22:38:19.879Z,97940.81
2019-03-18T22:40:49.517Z,97948.82
2019-03-18T22:43:17.876Z,97940.98
2019-03-18T22:45:47.541Z,97936.04
2019-03-18T22:48:15.534Z,97931.27
2019-03-18T22:50:46.085Z,97931.09
2019-03-18T22:53:16.413Z,97933.39
2019-03-18T22:55:46.692Z,97933.22
2019-03-18T22:58:16.279Z,97935.37
2019-03-18T23:00:45.868Z,97935.39
2019-03-18T23:03:12.692Z,97928.84
2019-03-18T23:05:39.366Z,97923.60
2019-03-18T23:08:06.226Z,97932.43
2019-03-18T23:10:32.928Z,97932.11
2019-03-18T23:12:59.809Z,97929.46
2019-03-18T23:15:26.478Z,97929.78
2019-03-18T23:17:54.074Z,97923.70
2019-03-18T23:20:20.733Z,97931.88
2019-03-18T23:22:47.467Z,97928.41
2019-03-18T23:25:14.348Z,97933.95
2019-03-18T23:27:40.976Z,97936.98
2019-03-18T23:30:08.907Z,97937.93
2019-03-18T23:32:35.584Z,97944.28
2019-03-18T23:35:02.189Z,97951.25
2019-03-18T23:37:28.859Z,97946.83
2019-03-18T23:39:55.549Z,97948.17
2019-03-18T23:42:22.241Z,97946.16
2019-03-18T23:44:50.153Z,97945.91
2019-03-18T23:47:16.804Z,97940.86
2019-03-18T23:49:43.462Z,97944.03
2019-03-18T23:52:10.110Z,97948.82
2019-03-18T23:54:37.022Z,97959.66
2019-03-18T23:57:03.886Z,97958.07
2019-03-18T23:59:30.539Z,97955.12
